Check out our new PWSWeather beta!
PWSweather.com
Personal Weather Stations
Station Observations
ANTHEMNP
Anthem North Parkside, Anthem, AZ 85086

Anthem North ParksideAnthem, AZ 85086

Lat: 33.876464, Lon: -112.13861199999997

Elevation: 1930

Station Type: Davis Vantage Vue with Pro 2 console

http://www.azjerry.com/ANPW/wxindex.php

High Low Average
Temperature 107.1°F41.7°C 80.4°F26.9°C 95.3°F35.2°C
Dew Point 65.0°F18.3°C 54.0°F12.2°C 58.2°F14.6°C
Winds 11.4 mph 18.3 kmh Calm Calm 3.0 mph SSE4.8 kmh SSE
Wind Gusts 22.0 mph35.4 kmh -- 7.0 mph11.3 kmh
Humidity 59% 18% 31%
Pressure 29.93 in1013.5 mb 29.76 in1007.8 mb -
Precipitation 0.01 in0.3 mm - -
Hour Temp Dew Point Humidity Winds Wind Gusts Pressure Precip Precip Rate Daily Precip Total
12:00 AM 80.4°F26.9°C 65.0°F18.3°C 59% 5.6 mph NNE9.0 kmh NNE 14.0 mph22.5 kmh 29.93 in1013.5 mb 0.00 in0.0 mm 0.00 in0.0 mm 0.00 in0.0 mm
12:10 AM 82.8°F28.2°C 61.0°F16.1°C 48% 5.0 mph ENE8.0 kmh ENE 13.0 mph20.9 kmh 29.91 in1012.9 mb 0.00 in0.0 mm 0.00 in0.0 mm 0.00 in0.0 mm
12:20 AM 83.6°F28.7°C 62.0°F16.7°C 48% 5.0 mph N8.0 kmh N 12.0 mph19.3 kmh 29.89 in1012.2 mb 0.00 in0.0 mm 0.00 in0.0 mm 0.00 in0.0 mm
12:30 AM 84.6°F29.2°C 61.0°F16.1°C 45% 6.2 mph NNE10.0 kmh NNE 14.0 mph22.5 kmh 29.88 in1011.9 mb 0.00 in0.0 mm 0.00 in0.0 mm 0.00 in0.0 mm
12:40 AM 85.0°F29.4°C 61.0°F16.1°C 44% 9.7 mph NNE15.6 kmh NNE 22.0 mph35.4 kmh 29.85 in1010.8 mb 0.00 in0.0 mm 0.00 in0.0 mm 0.01 in0.3 mm
12:50 AM 83.6°F28.7°C 61.0°F16.1°C 46% 11.4 mph N18.3 kmh N 20.0 mph32.2 kmh 29.80 in1009.1 mb 0.00 in0.0 mm 0.00 in0.0 mm 0.01 in0.3 mm
01:00 AM 84.1°F28.9°C 61.0°F16.1°C 45% 7.0 mph E11.3 kmh E 17.0 mph27.4 kmh 29.80 in1009.1 mb 0.00 in0.0 mm 0.00 in0.0 mm 0.01 in0.3 mm
01:10 AM 85.5°F29.7°C 59.0°F15.0°C 40% 7.2 mph NE11.6 kmh NE 15.0 mph24.1 kmh 29.81 in1009.5 mb 0.00 in0.0 mm 0.00 in0.0 mm 0.01 in0.3 mm
01:20 AM 87.4°F30.8°C 57.0°F13.9°C 36% 5.5 mph N8.9 kmh N 9.0 mph14.5 kmh 29.80 in1009.1 mb 0.00 in0.0 mm 0.00 in0.0 mm 0.01 in0.3 mm
01:30 AM 87.4°F30.8°C 59.0°F15.0°C 38% 5.4 mph NNE8.7 kmh NNE 15.0 mph24.1 kmh 29.81 in1009.5 mb 0.00 in0.0 mm 0.00 in0.0 mm 0.01 in0.3 mm
01:40 AM 86.6°F30.3°C 59.0°F15.0°C 39% 8.5 mph NW13.7 kmh NW 16.0 mph25.7 kmh 29.81 in1009.5 mb 0.00 in0.0 mm 0.00 in0.0 mm 0.01 in0.3 mm
01:50 AM 86.1°F30.1°C 60.0°F15.6°C 42% 10.7 mph N17.2 kmh N 20.0 mph32.2 kmh 29.81 in1009.5 mb 0.00 in0.0 mm 0.00 in0.0 mm 0.01 in0.3 mm
02:00 AM 85.1°F29.5°C 61.0°F16.1°C 44% 5.2 mph N8.4 kmh N 15.0 mph24.1 kmh 29.82 in1009.8 mb 0.00 in0.0 mm 0.00 in0.0 mm 0.01 in0.3 mm
02:10 AM 84.1°F28.9°C 62.0°F16.7°C 47% 1.8 mph NW2.9 kmh NW 7.0 mph11.3 kmh 29.82 in1009.8 mb 0.00 in0.0 mm 0.00 in0.0 mm 0.01 in0.3 mm
02:20 AM 84.0°F28.9°C 62.0°F16.7°C 47% 2.6 mph NW4.2 kmh NW 7.0 mph11.3 kmh 29.83 in1010.2 mb 0.00 in0.0 mm 0.00 in0.0 mm 0.01 in0.3 mm
02:30 AM 83.7°F28.7°C 62.0°F16.7°C 48% 4.8 mph NNE7.7 kmh NNE 12.0 mph19.3 kmh 29.83 in1010.2 mb 0.00 in0.0 mm 0.00 in0.0 mm 0.01 in0.3 mm
02:40 AM 83.4°F28.6°C 62.0°F16.7°C 49% 9.9 mph N15.9 kmh N 19.0 mph30.6 kmh 29.83 in1010.2 mb 0.00 in0.0 mm 0.00 in0.0 mm 0.01 in0.3 mm
02:50 AM 83.0°F28.3°C 61.0°F16.1°C 48% 9.3 mph N15.0 kmh N 17.0 mph27.4 kmh 29.83 in1010.2 mb 0.00 in0.0 mm 0.00 in0.0 mm 0.01 in0.3 mm
03:00 AM 83.5°F28.6°C 62.0°F16.7°C 48% 9.1 mph NW14.6 kmh NW 19.0 mph30.6 kmh 29.83 in1010.2 mb 0.00 in0.0 mm 0.00 in0.0 mm 0.01 in0.3 mm
03:10 AM 83.9°F28.8°C 61.0°F16.1°C 46% 9.4 mph N15.1 kmh N 18.0 mph29.0 kmh 29.83 in1010.2 mb 0.00 in0.0 mm 0.00 in0.0 mm 0.01 in0.3 mm
03:20 AM 84.7°F29.3°C 60.0°F15.6°C 44% 10.1 mph NE16.3 kmh NE 18.0 mph29.0 kmh 29.83 in1010.2 mb 0.00 in0.0 mm 0.00 in0.0 mm 0.01 in0.3 mm
03:30 AM 85.0°F29.4°C 60.0°F15.6°C 43% 10.7 mph N17.2 kmh N 21.0 mph33.8 kmh 29.83 in1010.2 mb 0.00 in0.0 mm 0.00 in0.0 mm 0.01 in0.3 mm
03:40 AM 85.5°F29.7°C 60.0°F15.6°C 42% 8.2 mph N13.2 kmh N 14.0 mph22.5 kmh 29.83 in1010.2 mb 0.00 in0.0 mm 0.00 in0.0 mm 0.01 in0.3 mm
03:50 AM 86.4°F30.2°C 59.0°F15.0°C 40% 9.3 mph NNE15.0 kmh NNE 17.0 mph27.4 kmh 29.83 in1010.2 mb 0.00 in0.0 mm 0.00 in0.0 mm 0.01 in0.3 mm
04:00 AM 86.0°F30.0°C 60.0°F15.6°C 41% 8.9 mph N14.3 kmh N 15.0 mph24.1 kmh 29.83 in1010.2 mb 0.00 in0.0 mm 0.00 in0.0 mm 0.01 in0.3 mm
04:10 AM 84.9°F29.4°C 60.0°F15.6°C 43% 7.7 mph NNE12.4 kmh NNE 14.0 mph22.5 kmh 29.83 in1010.2 mb 0.00 in0.0 mm 0.00 in0.0 mm 0.01 in0.3 mm
04:20 AM 84.6°F29.2°C 60.0°F15.6°C 43% 6.3 mph N10.1 kmh N 12.0 mph19.3 kmh 29.84 in1010.5 mb 0.00 in0.0 mm 0.00 in0.0 mm 0.01 in0.3 mm
04:30 AM 85.1°F29.5°C 59.0°F15.0°C 42% 7.5 mph N12.1 kmh N 13.0 mph20.9 kmh 29.84 in1010.5 mb 0.00 in0.0 mm 0.00 in0.0 mm 0.01 in0.3 mm
04:40 AM 85.3°F29.6°C 59.0°F15.0°C 41% 6.9 mph NE11.1 kmh NE 13.0 mph20.9 kmh 29.84 in1010.5 mb 0.00 in0.0 mm 0.00 in0.0 mm 0.01 in0.3 mm
04:50 AM 85.5°F29.7°C 59.0°F15.0°C 41% 4.9 mph NNW7.9 kmh NNW 9.0 mph14.5 kmh 29.85 in1010.8 mb 0.00 in0.0 mm 0.00 in0.0 mm 0.01 in0.3 mm
05:00 AM 85.0°F29.4°C 60.0°F15.6°C 43% 2.1 mph N3.4 kmh N 6.0 mph9.7 kmh 29.85 in1010.8 mb 0.00 in0.0 mm 0.00 in0.0 mm 0.01 in0.3 mm
05:10 AM 83.8°F28.8°C 60.0°F15.6°C 45% 1.8 mph N2.9 kmh N 4.0 mph6.4 kmh 29.85 in1010.8 mb 0.00 in0.0 mm 0.00 in0.0 mm 0.01 in0.3 mm
05:20 AM 83.0°F28.3°C 60.0°F15.6°C 45% 0.3 mph N0.5 kmh N 2.0 mph3.2 kmh 29.86 in1011.2 mb 0.00 in0.0 mm 0.00 in0.0 mm 0.01 in0.3 mm
05:30 AM 83.0°F28.3°C 60.0°F15.6°C 46% 3.3 mph NNE5.3 kmh NNE 8.0 mph12.9 kmh 29.86 in1011.2 mb 0.00 in0.0 mm 0.00 in0.0 mm 0.01 in0.3 mm
05:40 AM 83.0°F28.3°C 60.0°F15.6°C 45% 2.4 mph N3.9 kmh N 6.0 mph9.7 kmh 29.87 in1011.5 mb 0.00 in0.0 mm 0.00 in0.0 mm 0.01 in0.3 mm
05:50 AM 83.2°F28.4°C 60.0°F15.6°C 45% 1.9 mph N3.1 kmh N 6.0 mph9.7 kmh 29.87 in1011.5 mb 0.00 in0.0 mm 0.00 in0.0 mm 0.01 in0.3 mm
06:00 AM 83.0°F28.3°C 60.0°F15.6°C 46% 1.8 mph N2.9 kmh N 4.0 mph6.4 kmh 29.87 in1011.5 mb 0.00 in0.0 mm 0.00 in0.0 mm 0.01 in0.3 mm
06:10 AM 83.2°F28.4°C 60.0°F15.6°C 46% 3.3 mph NNE5.3 kmh NNE 8.0 mph12.9 kmh 29.88 in1011.9 mb 0.00 in0.0 mm 0.00 in0.0 mm 0.01 in0.3 mm
06:20 AM 83.1°F28.4°C 60.0°F15.6°C 46% 4.8 mph NNE7.7 kmh NNE 9.0 mph14.5 kmh 29.88 in1011.9 mb 0.00 in0.0 mm 0.00 in0.0 mm 0.01 in0.3 mm
06:30 AM 83.4°F28.6°C 60.0°F15.6°C 46% 3.8 mph E6.1 kmh E 7.0 mph11.3 kmh 29.88 in1011.9 mb 0.00 in0.0 mm 0.00 in0.0 mm 0.01 in0.3 mm
06:40 AM 84.0°F28.9°C 60.0°F15.6°C 44% 3.6 mph NNE5.8 kmh NNE 7.0 mph11.3 kmh 29.88 in1011.9 mb 0.00 in0.0 mm 0.00 in0.0 mm 0.01 in0.3 mm
06:50 AM 84.1°F28.9°C 61.0°F16.1°C 45% 3.2 mph N5.1 kmh N 6.0 mph9.7 kmh 29.89 in1012.2 mb 0.00 in0.0 mm 0.00 in0.0 mm 0.01 in0.3 mm
07:00 AM 84.5°F29.2°C 60.0°F15.6°C 44% 3.5 mph N5.6 kmh N 7.0 mph11.3 kmh 29.89 in1012.2 mb 0.00 in0.0 mm 0.00 in0.0 mm 0.01 in0.3 mm
07:10 AM 85.0°F29.4°C 60.0°F15.6°C 43% 3.2 mph N5.1 kmh N 6.0 mph9.7 kmh 29.89 in1012.2 mb 0.00 in0.0 mm 0.00 in0.0 mm 0.01 in0.3 mm
07:20 AM 86.2°F30.1°C 60.0°F15.6°C 41% 4.5 mph N7.2 kmh N 9.0 mph14.5 kmh 29.89 in1012.2 mb 0.00 in0.0 mm 0.00 in0.0 mm 0.01 in0.3 mm
07:30 AM 87.2°F30.7°C 61.0°F16.1°C 41% 3.6 mph NNE5.8 kmh NNE 7.0 mph11.3 kmh 29.89 in1012.2 mb 0.00 in0.0 mm 0.00 in0.0 mm 0.01 in0.3 mm
07:40 AM 87.7°F30.9°C 61.0°F16.1°C 40% 3.6 mph N5.8 kmh N 8.0 mph12.9 kmh 29.89 in1012.2 mb 0.00 in0.0 mm 0.00 in0.0 mm 0.01 in0.3 mm
07:50 AM 87.8°F31.0°C 61.0°F16.1°C 40% 3.9 mph N6.3 kmh N 7.0 mph11.3 kmh 29.89 in1012.2 mb 0.00 in0.0 mm 0.00 in0.0 mm 0.01 in0.3 mm
08:00 AM 88.6°F31.4°C 61.0°F16.1°C 39% 3.1 mph NNE5.0 kmh NNE 6.0 mph9.7 kmh 29.90 in1012.5 mb 0.00 in0.0 mm 0.00 in0.0 mm 0.01 in0.3 mm
08:10 AM 89.2°F31.8°C 60.0°F15.6°C 37% 3.2 mph NE5.1 kmh NE 6.0 mph9.7 kmh 29.89 in1012.2 mb 0.00 in0.0 mm 0.00 in0.0 mm 0.01 in0.3 mm
08:20 AM 89.6°F32.0°C 60.0°F15.6°C 37% 2.6 mph NE4.2 kmh NE 5.0 mph8.0 kmh 29.89 in1012.2 mb 0.00 in0.0 mm 0.00 in0.0 mm 0.01 in0.3 mm
08:30 AM 90.9°F32.7°C 60.0°F15.6°C 35% 1.5 mph NNE2.4 kmh NNE 4.0 mph6.4 kmh 29.89 in1012.2 mb 0.00 in0.0 mm 0.00 in0.0 mm 0.01 in0.3 mm
08:40 AM 91.7°F33.2°C 60.0°F15.6°C 34% 1.3 mph NNE2.1 kmh NNE 4.0 mph6.4 kmh 29.89 in1012.2 mb 0.00 in0.0 mm 0.00 in0.0 mm 0.01 in0.3 mm
08:50 AM 93.7°F34.3°C 61.0°F16.1°C 33% 0.2 mph NNE0.3 kmh NNE 2.0 mph3.2 kmh 29.89 in1012.2 mb 0.00 in0.0 mm 0.00 in0.0 mm 0.01 in0.3 mm
09:00 AM 96.1°F35.6°C 57.0°F13.9°C 27% 0.4 mph NE0.6 kmh NE 3.0 mph4.8 kmh 29.89 in1012.2 mb 0.00 in0.0 mm 0.00 in0.0 mm 0.01 in0.3 mm
09:10 AM 96.1°F35.6°C 59.0°F15.0°C 29% 0.7 mph SE1.1 kmh SE 2.0 mph3.2 kmh 29.90 in1012.5 mb 0.00 in0.0 mm 0.00 in0.0 mm 0.01 in0.3 mm
09:20 AM 96.8°F36.0°C 59.0°F15.0°C 28% 1.0 mph SW1.6 kmh SW 4.0 mph6.4 kmh 29.90 in1012.5 mb 0.00 in0.0 mm 0.00 in0.0 mm 0.01 in0.3 mm
09:30 AM 97.5°F36.4°C 58.0°F14.4°C 27% 1.2 mph S1.9 kmh S 4.0 mph6.4 kmh 29.90 in1012.5 mb 0.00 in0.0 mm 0.00 in0.0 mm 0.01 in0.3 mm
09:40 AM 97.1°F36.2°C 58.0°F14.4°C 27% 1.7 mph SE2.7 kmh SE 5.0 mph8.0 kmh 29.90 in1012.5 mb 0.00 in0.0 mm 0.00 in0.0 mm 0.01 in0.3 mm
09:50 AM 98.0°F36.7°C 59.0°F15.0°C 27% 1.3 mph SE2.1 kmh SE 4.0 mph6.4 kmh 29.90 in1012.5 mb 0.00 in0.0 mm 0.00 in0.0 mm 0.01 in0.3 mm
10:00 AM 98.3°F36.8°C 59.0°F15.0°C 27% 1.9 mph SSW3.1 kmh SSW 5.0 mph8.0 kmh 29.90 in1012.5 mb 0.00 in0.0 mm 0.00 in0.0 mm 0.01 in0.3 mm
10:10 AM 98.4°F36.9°C 59.0°F15.0°C 27% 1.9 mph ESE3.1 kmh ESE 6.0 mph9.7 kmh 29.90 in1012.5 mb 0.00 in0.0 mm 0.00 in0.0 mm 0.01 in0.3 mm
10:20 AM 98.8°F37.1°C 59.0°F15.0°C 27% 1.6 mph NNE2.6 kmh NNE 5.0 mph8.0 kmh 29.90 in1012.5 mb 0.00 in0.0 mm 0.00 in0.0 mm 0.01 in0.3 mm
10:30 AM 99.1°F37.3°C 59.0°F15.0°C 26% 0.7 mph ESE1.1 kmh ESE 3.0 mph4.8 kmh 29.90 in1012.5 mb 0.00 in0.0 mm 0.00 in0.0 mm 0.01 in0.3 mm
10:40 AM 100.0°F37.8°C 58.0°F14.4°C 25% 1.4 mph E2.3 kmh E 3.0 mph4.8 kmh 29.90 in1012.5 mb 0.00 in0.0 mm 0.00 in0.0 mm 0.01 in0.3 mm
10:50 AM 99.9°F37.7°C 58.0°F14.4°C 25% 2.3 mph SSW3.7 kmh SSW 6.0 mph9.7 kmh 29.90 in1012.5 mb 0.00 in0.0 mm 0.00 in0.0 mm 0.01 in0.3 mm
11:00 AM 101.1°F38.4°C 59.0°F15.0°C 25% 0.5 mph S0.8 kmh S 3.0 mph4.8 kmh 29.89 in1012.2 mb 0.00 in0.0 mm 0.00 in0.0 mm 0.01 in0.3 mm
11:10 AM 101.8°F38.8°C 59.0°F15.0°C 24% 0.8 mph SSW1.3 kmh SSW 3.0 mph4.8 kmh 29.89 in1012.2 mb 0.00 in0.0 mm 0.00 in0.0 mm 0.01 in0.3 mm
11:20 AM 101.2°F38.4°C 57.0°F13.9°C 23% 1.2 mph N1.9 kmh N 4.0 mph6.4 kmh 29.89 in1012.2 mb 0.00 in0.0 mm 0.00 in0.0 mm 0.01 in0.3 mm
11:30 AM 102.0°F38.9°C 58.0°F14.4°C 23% 1.2 mph SE1.9 kmh SE 5.0 mph8.0 kmh 29.89 in1012.2 mb 0.00 in0.0 mm 0.00 in0.0 mm 0.01 in0.3 mm
11:40 AM 102.3°F39.1°C 59.0°F15.0°C 24% 1.7 mph NNE2.7 kmh NNE 5.0 mph8.0 kmh 29.89 in1012.2 mb 0.00 in0.0 mm 0.00 in0.0 mm 0.01 in0.3 mm
11:50 AM 101.8°F38.8°C 58.0°F14.4°C 23% 2.2 mph SW3.5 kmh SW 7.0 mph11.3 kmh 29.88 in1011.9 mb 0.00 in0.0 mm 0.00 in0.0 mm 0.01 in0.3 mm
12:00 PM 101.6°F38.7°C 59.0°F15.0°C 24% 1.5 mph SW2.4 kmh SW 4.0 mph6.4 kmh 29.88 in1011.9 mb 0.00 in0.0 mm 0.00 in0.0 mm 0.01 in0.3 mm
12:10 PM 101.9°F38.8°C 59.0°F15.0°C 24% 2.0 mph SW3.2 kmh SW 8.0 mph12.9 kmh 29.88 in1011.9 mb 0.00 in0.0 mm 0.00 in0.0 mm 0.01 in0.3 mm
12:20 PM 102.2°F39.0°C 58.0°F14.4°C 23% 3.3 mph SSW5.3 kmh SSW 8.0 mph12.9 kmh 29.88 in1011.9 mb 0.00 in0.0 mm 0.00 in0.0 mm 0.01 in0.3 mm
12:30 PM 102.3°F39.1°C 58.0°F14.4°C 23% 2.1 mph SE3.4 kmh SE 5.0 mph8.0 kmh 29.88 in1011.9 mb 0.00 in0.0 mm 0.00 in0.0 mm 0.01 in0.3 mm
12:40 PM 102.6°F39.2°C 58.0°F14.4°C 23% 2.0 mph SW3.2 kmh SW 8.0 mph12.9 kmh 29.87 in1011.5 mb 0.00 in0.0 mm 0.00 in0.0 mm 0.01 in0.3 mm
12:50 PM 102.8°F39.3°C 57.0°F13.9°C 22% 2.0 mph NE3.2 kmh NE 5.0 mph8.0 kmh 29.87 in1011.5 mb 0.00 in0.0 mm 0.00 in0.0 mm 0.01 in0.3 mm
01:00 PM 103.1°F39.5°C 57.0°F13.9°C 22% 2.8 mph SW4.5 kmh SW 8.0 mph12.9 kmh 29.86 in1011.2 mb 0.00 in0.0 mm 0.00 in0.0 mm 0.01 in0.3 mm
01:10 PM 104.2°F40.1°C 58.0°F14.4°C 22% 1.5 mph SW2.4 kmh SW 6.0 mph9.7 kmh 29.86 in1011.2 mb 0.00 in0.0 mm 0.00 in0.0 mm 0.01 in0.3 mm
01:20 PM 104.0°F40.0°C 58.0°F14.4°C 22% 2.2 mph ESE3.5 kmh ESE 7.0 mph11.3 kmh 29.85 in1010.8 mb 0.00 in0.0 mm 0.00 in0.0 mm 0.01 in0.3 mm
01:30 PM 104.5°F40.3°C 57.0°F13.9°C 21% 2.7 mph WSW4.3 kmh WSW 7.0 mph11.3 kmh 29.85 in1010.8 mb 0.00 in0.0 mm 0.00 in0.0 mm 0.01 in0.3 mm
01:40 PM 104.4°F40.2°C 56.0°F13.3°C 20% 2.1 mph SSW3.4 kmh SSW 6.0 mph9.7 kmh 29.84 in1010.5 mb 0.00 in0.0 mm 0.00 in0.0 mm 0.01 in0.3 mm
01:50 PM 105.6°F40.9°C 57.0°F13.9°C 20% 1.5 mph SSW2.4 kmh SSW 6.0 mph9.7 kmh 29.84 in1010.5 mb 0.00 in0.0 mm 0.00 in0.0 mm 0.01 in0.3 mm
02:00 PM 105.7°F40.9°C 57.0°F13.9°C 20% 1.1 mph SW1.8 kmh SW 4.0 mph6.4 kmh 29.84 in1010.5 mb 0.00 in0.0 mm 0.00 in0.0 mm 0.01 in0.3 mm
02:10 PM 105.1°F40.6°C 57.0°F13.9°C 20% 2.8 mph SSE4.5 kmh SSE 7.0 mph11.3 kmh 29.83 in1010.2 mb 0.00 in0.0 mm 0.00 in0.0 mm 0.01 in0.3 mm
02:20 PM 106.0°F41.1°C 57.0°F13.9°C 20% 2.2 mph S3.5 kmh S 7.0 mph11.3 kmh 29.83 in1010.2 mb 0.00 in0.0 mm 0.00 in0.0 mm 0.01 in0.3 mm
02:30 PM 105.2°F40.7°C 55.0°F12.8°C 19% 2.8 mph S4.5 kmh S 7.0 mph11.3 kmh 29.82 in1009.8 mb 0.00 in0.0 mm 0.00 in0.0 mm 0.01 in0.3 mm
02:40 PM 106.2°F41.2°C 58.0°F14.4°C 20% 1.4 mph S2.3 kmh S 5.0 mph8.0 kmh 29.82 in1009.8 mb 0.00 in0.0 mm 0.00 in0.0 mm 0.01 in0.3 mm
02:50 PM 106.1°F41.2°C 55.0°F12.8°C 18% 1.5 mph NNE2.4 kmh NNE 3.0 mph4.8 kmh 29.82 in1009.8 mb 0.00 in0.0 mm 0.00 in0.0 mm 0.01 in0.3 mm
03:00 PM 106.8°F41.6°C 55.0°F12.8°C 18% 2.1 mph SW3.4 kmh SW 7.0 mph11.3 kmh 29.81 in1009.5 mb 0.00 in0.0 mm 0.00 in0.0 mm 0.01 in0.3 mm
03:10 PM 107.1°F41.7°C 55.0°F12.8°C 18% 2.3 mph SW3.7 kmh SW 7.0 mph11.3 kmh 29.80 in1009.1 mb 0.00 in0.0 mm 0.00 in0.0 mm 0.01 in0.3 mm
03:20 PM 105.8°F41.0°C 56.0°F13.3°C 19% 1.6 mph S2.6 kmh S 5.0 mph8.0 kmh 29.80 in1009.1 mb 0.00 in0.0 mm 0.00 in0.0 mm 0.01 in0.3 mm
03:30 PM 106.3°F41.3°C 56.0°F13.3°C 19% 2.0 mph SW3.2 kmh SW 8.0 mph12.9 kmh 29.80 in1009.1 mb 0.00 in0.0 mm 0.00 in0.0 mm 0.01 in0.3 mm
03:40 PM 106.0°F41.1°C 55.0°F12.8°C 18% 1.4 mph SE2.3 kmh SE 5.0 mph8.0 kmh 29.79 in1008.8 mb 0.00 in0.0 mm 0.00 in0.0 mm 0.01 in0.3 mm
03:50 PM 106.5°F41.4°C 55.0°F12.8°C 18% 2.6 mph S4.2 kmh S 10.0 mph16.1 kmh 29.79 in1008.8 mb 0.00 in0.0 mm 0.00 in0.0 mm 0.01 in0.3 mm
04:00 PM 105.8°F41.0°C 56.0°F13.3°C 19% 3.4 mph SE5.5 kmh SE 9.0 mph14.5 kmh 29.78 in1008.5 mb 0.00 in0.0 mm 0.00 in0.0 mm 0.01 in0.3 mm
04:10 PM 105.8°F41.0°C 54.0°F12.2°C 18% 3.3 mph WSW5.3 kmh WSW 9.0 mph14.5 kmh 29.78 in1008.5 mb 0.00 in0.0 mm 0.00 in0.0 mm 0.01 in0.3 mm
04:20 PM 105.8°F41.0°C 56.0°F13.3°C 19% 3.4 mph SSE5.5 kmh SSE 8.0 mph12.9 kmh 29.78 in1008.5 mb 0.00 in0.0 mm 0.00 in0.0 mm 0.01 in0.3 mm
04:30 PM 105.0°F40.6°C 55.0°F12.8°C 19% 1.4 mph SSW2.3 kmh SSW 6.0 mph9.7 kmh 29.78 in1008.5 mb 0.00 in0.0 mm 0.00 in0.0 mm 0.01 in0.3 mm
04:40 PM 105.2°F40.7°C 55.0°F12.8°C 19% 3.1 mph SSW5.0 kmh SSW 8.0 mph12.9 kmh 29.77 in1008.1 mb 0.00 in0.0 mm 0.00 in0.0 mm 0.01 in0.3 mm
04:50 PM 105.0°F40.6°C 55.0°F12.8°C 19% 3.0 mph SW4.8 kmh SW 9.0 mph14.5 kmh 29.77 in1008.1 mb 0.00 in0.0 mm 0.00 in0.0 mm 0.01 in0.3 mm
05:00 PM 105.1°F40.6°C 55.0°F12.8°C 19% 3.3 mph S5.3 kmh S 9.0 mph14.5 kmh 29.77 in1008.1 mb 0.00 in0.0 mm 0.00 in0.0 mm 0.01 in0.3 mm
05:10 PM 104.9°F40.5°C 55.0°F12.8°C 19% 4.2 mph SSW6.8 kmh SSW 9.0 mph14.5 kmh 29.76 in1007.8 mb 0.00 in0.0 mm 0.00 in0.0 mm 0.01 in0.3 mm
05:20 PM 104.6°F40.3°C 55.0°F12.8°C 19% 3.4 mph SW5.5 kmh SW 7.0 mph11.3 kmh 29.76 in1007.8 mb 0.00 in0.0 mm 0.00 in0.0 mm 0.01 in0.3 mm
05:30 PM 104.9°F40.5°C 55.0°F12.8°C 19% 2.2 mph S3.5 kmh S 7.0 mph11.3 kmh 29.76 in1007.8 mb 0.00 in0.0 mm 0.00 in0.0 mm 0.01 in0.3 mm
05:40 PM 104.7°F40.4°C 55.0°F12.8°C 19% 2.4 mph SW3.9 kmh SW 5.0 mph8.0 kmh 29.76 in1007.8 mb 0.00 in0.0 mm 0.00 in0.0 mm 0.01 in0.3 mm
05:50 PM 104.8°F40.4°C 55.0°F12.8°C 19% 2.1 mph SSW3.4 kmh SSW 8.0 mph12.9 kmh 29.77 in1008.1 mb 0.00 in0.0 mm 0.00 in0.0 mm 0.01 in0.3 mm
06:00 PM 104.7°F40.4°C 55.0°F12.8°C 19% 2.9 mph S4.7 kmh S 8.0 mph12.9 kmh 29.76 in1007.8 mb 0.00 in0.0 mm 0.00 in0.0 mm 0.01 in0.3 mm
06:10 PM 104.6°F40.3°C 55.0°F12.8°C 19% 1.5 mph SW2.4 kmh SW 4.0 mph6.4 kmh 29.76 in1007.8 mb 0.00 in0.0 mm 0.00 in0.0 mm 0.01 in0.3 mm
06:20 PM 104.7°F40.4°C 55.0°F12.8°C 19% 2.1 mph S3.4 kmh S 6.0 mph9.7 kmh 29.76 in1007.8 mb 0.00 in0.0 mm 0.00 in0.0 mm 0.01 in0.3 mm
06:30 PM 104.5°F40.3°C 55.0°F12.8°C 19% 1.7 mph SW2.7 kmh SW 5.0 mph8.0 kmh 29.76 in1007.8 mb 0.00 in0.0 mm 0.00 in0.0 mm 0.01 in0.3 mm
06:40 PM 104.1°F40.1°C 54.0°F12.2°C 19% 1.9 mph SSW3.1 kmh SSW 4.0 mph6.4 kmh 29.76 in1007.8 mb 0.00 in0.0 mm 0.00 in0.0 mm 0.01 in0.3 mm
06:50 PM 103.8°F39.9°C 54.0°F12.2°C 19% 1.1 mph S1.8 kmh S 6.0 mph9.7 kmh 29.76 in1007.8 mb 0.00 in0.0 mm 0.00 in0.0 mm 0.01 in0.3 mm
07:00 PM 103.7°F39.8°C 54.0°F12.2°C 19% 1.7 mph SW2.7 kmh SW 6.0 mph9.7 kmh 29.76 in1007.8 mb 0.00 in0.0 mm 0.00 in0.0 mm 0.01 in0.3 mm
07:10 PM 103.5°F39.7°C 54.0°F12.2°C 19% 1.2 mph SSW1.9 kmh SSW 3.0 mph4.8 kmh 29.77 in1008.1 mb 0.00 in0.0 mm 0.00 in0.0 mm 0.01 in0.3 mm
07:20 PM 103.1°F39.5°C 55.0°F12.8°C 20% 0.9 mph SE1.4 kmh SE 3.0 mph4.8 kmh 29.77 in1008.1 mb 0.00 in0.0 mm 0.00 in0.0 mm 0.01 in0.3 mm
07:30 PM 102.4°F39.1°C 56.0°F13.3°C 21% 0.5 mph SE0.8 kmh SE 2.0 mph3.2 kmh 29.77 in1008.1 mb 0.00 in0.0 mm 0.00 in0.0 mm 0.01 in0.3 mm
07:40 PM 101.8°F38.8°C 55.0°F12.8°C 21% 0.1 mph SW0.2 kmh SW 2.0 mph3.2 kmh 29.77 in1008.1 mb 0.00 in0.0 mm 0.00 in0.0 mm 0.01 in0.3 mm
07:50 PM 101.7°F38.7°C 55.0°F12.8°C 21% 0.7 mph SW1.1 kmh SW 3.0 mph4.8 kmh 29.77 in1008.1 mb 0.00 in0.0 mm 0.00 in0.0 mm 0.01 in0.3 mm
08:00 PM 101.5°F38.6°C 55.0°F12.8°C 21% 1.4 mph SW2.3 kmh SW 4.0 mph6.4 kmh 29.78 in1008.5 mb 0.00 in0.0 mm 0.00 in0.0 mm 0.01 in0.3 mm
08:10 PM 101.1°F38.4°C 56.0°F13.3°C 22% 1.3 mph SW2.1 kmh SW 3.0 mph4.8 kmh 29.78 in1008.5 mb 0.00 in0.0 mm 0.00 in0.0 mm 0.01 in0.3 mm
08:20 PM 100.6°F38.1°C 57.0°F13.9°C 23% 0.6 mph SSE1.0 kmh SSE 3.0 mph4.8 kmh 29.78 in1008.5 mb 0.00 in0.0 mm 0.00 in0.0 mm 0.01 in0.3 mm
08:30 PM 99.7°F37.6°C 57.0°F13.9°C 24% 0.1 mph SE0.2 kmh SE 1.0 mph1.6 kmh 29.78 in1008.5 mb 0.00 in0.0 mm 0.00 in0.0 mm 0.01 in0.3 mm
08:40 PM 98.4°F36.9°C 57.0°F13.9°C 25% Calm Calm 1.0 mph1.6 kmh 29.78 in1008.5 mb 0.00 in0.0 mm 0.00 in0.0 mm 0.01 in0.3 mm
08:50 PM 97.3°F36.3°C 57.0°F13.9°C 26% Calm Calm -- 29.79 in1008.8 mb 0.00 in0.0 mm 0.00 in0.0 mm 0.01 in0.3 mm
09:00 PM 96.6°F35.9°C 58.0°F14.4°C 27% Calm Calm 1.0 mph1.6 kmh 29.79 in1008.8 mb 0.00 in0.0 mm 0.00 in0.0 mm 0.01 in0.3 mm
09:10 PM 96.2°F35.7°C 61.0°F16.1°C 31% 0.6 mph N1.0 kmh N 3.0 mph4.8 kmh 29.80 in1009.1 mb 0.00 in0.0 mm 0.00 in0.0 mm 0.01 in0.3 mm
09:20 PM 96.3°F35.7°C 59.0°F15.0°C 29% 2.3 mph NE3.7 kmh NE 4.0 mph6.4 kmh 29.80 in1009.1 mb 0.00 in0.0 mm 0.00 in0.0 mm 0.01 in0.3 mm
09:30 PM 96.5°F35.8°C 57.0°F13.9°C 27% 0.6 mph NNE1.0 kmh NNE 2.0 mph3.2 kmh 29.80 in1009.1 mb 0.00 in0.0 mm 0.00 in0.0 mm 0.01 in0.3 mm
09:40 PM 96.5°F35.8°C 57.0°F13.9°C 27% 0.2 mph NNE0.3 kmh NNE 2.0 mph3.2 kmh 29.80 in1009.1 mb 0.00 in0.0 mm 0.00 in0.0 mm 0.01 in0.3 mm
09:50 PM 96.1°F35.6°C 58.0°F14.4°C 28% 0.3 mph NNE0.5 kmh NNE 2.0 mph3.2 kmh 29.80 in1009.1 mb 0.00 in0.0 mm 0.00 in0.0 mm 0.01 in0.3 mm
10:00 PM 96.2°F35.7°C 57.0°F13.9°C 27% 0.1 mph N0.2 kmh N 1.0 mph1.6 kmh 29.80 in1009.1 mb 0.00 in0.0 mm 0.00 in0.0 mm 0.01 in0.3 mm
10:10 PM 95.6°F35.3°C 59.0°F15.0°C 29% 0.6 mph N1.0 kmh N 4.0 mph6.4 kmh 29.81 in1009.5 mb 0.00 in0.0 mm 0.00 in0.0 mm 0.01 in0.3 mm
10:20 PM 95.2°F35.1°C 58.0°F14.4°C 29% 1.7 mph NNE2.7 kmh NNE 4.0 mph6.4 kmh 29.81 in1009.5 mb 0.00 in0.0 mm 0.00 in0.0 mm 0.01 in0.3 mm
10:30 PM 95.3°F35.2°C 58.0°F14.4°C 29% 2.6 mph NNE4.2 kmh NNE 7.0 mph11.3 kmh 29.81 in1009.5 mb 0.00 in0.0 mm 0.00 in0.0 mm 0.01 in0.3 mm
10:40 PM 95.3°F35.2°C 57.0°F13.9°C 28% 6.3 mph N10.1 kmh N 12.0 mph19.3 kmh 29.81 in1009.5 mb 0.00 in0.0 mm 0.00 in0.0 mm 0.01 in0.3 mm
10:50 PM 95.0°F35.0°C 58.0°F14.4°C 29% 5.4 mph NE8.7 kmh NE 10.0 mph16.1 kmh 29.81 in1009.5 mb 0.00 in0.0 mm 0.00 in0.0 mm 0.01 in0.3 mm
11:00 PM 94.5°F34.7°C 59.0°F15.0°C 30% 4.7 mph NNE7.6 kmh NNE 8.0 mph12.9 kmh 29.81 in1009.5 mb 0.00 in0.0 mm 0.00 in0.0 mm 0.01 in0.3 mm
11:10 PM 94.3°F34.6°C 58.0°F14.4°C 30% 4.6 mph N7.4 kmh N 10.0 mph16.1 kmh 29.81 in1009.5 mb 0.00 in0.0 mm 0.00 in0.0 mm 0.01 in0.3 mm
11:20 PM 93.9°F34.4°C 58.0°F14.4°C 30% 2.1 mph NNE3.4 kmh NNE 4.0 mph6.4 kmh 29.81 in1009.5 mb 0.00 in0.0 mm 0.00 in0.0 mm 0.01 in0.3 mm
11:30 PM 93.7°F34.3°C 58.0°F14.4°C 30% 1.6 mph N2.6 kmh N 4.0 mph6.4 kmh 29.80 in1009.1 mb 0.00 in0.0 mm 0.00 in0.0 mm 0.01 in0.3 mm
11:40 PM 93.7°F34.3°C 58.0°F14.4°C 30% 1.1 mph N1.8 kmh N 4.0 mph6.4 kmh 29.80 in1009.1 mb 0.00 in0.0 mm 0.00 in0.0 mm 0.01 in0.3 mm
11:50 PM 93.5°F34.2°C 58.0°F14.4°C 30% 2.2 mph N3.5 kmh N 5.0 mph8.0 kmh 29.80 in1009.1 mb 0.00 in0.0 mm 0.00 in0.0 mm 0.01 in0.3 mm